Weather at Campo di Volo Natile

Public forecast

Using degrees Celsius for public forecast. Weather courtesy of forecast.io.

Closest aviation weather report (METAR) to Campo di Volo Natile

Closest report is Marina di Ginosa Heliport, 11.4 nm (21.0 km) SSE.

2024/05/22 15:55 (retrieved 56 minutes ago)

LIBH 221555Z 29012KT 250V330 9999 FEW020 28/04 Q1012 RMK BKN SCT200 QUK 1 QUL 1 NW VIS MAR 35 KM VIS MIN 9999

Closest aviation forecast (TAF) to Campo di Volo Natile

Closest forecast is Bari Karol Wojtyła Airport, 32.9 nm (61.0 km) N.

2024/05/22 12:00 (retrieved 5 hours ago)

TAF LIBD 221100Z 2212/2312 34016KT CAVOK BECMG 2215/2218 VRB05KT BECMG 2302/2304 26010KT BECMG 2309/2311 01012KT